Time;durP1;ratioP1;P1;durP2;ratioP2;P2;SDS_P1;SDS_P2;PMS_P1;PMS_P2;Temp;Humidity;BMP_temperature;BMP_pressure;BME280_temperature;BME280_humidity;BME280_pressure;Samples;Min_cycle;Max_cycle;Signal;HPM_P1;HPM_P2
2022/05/11 00:00:39;;;;;;;1999.90;999.90;;;19.70;99.90;;;;;;5042000;28;20205;-82
2022/05/11 00:03:05;;;;;;;1999.90;999.90;;;19.60;99.90;;;;;;5040881;28;20198;-81
2022/05/11 00:05:35;;;;;;;1999.90;999.90;;;19.40;99.90;;;;;;5034965;28;20183;-81
2022/05/11 00:08:01;;;;;;;1999.90;999.90;;;19.40;99.90;;;;;;5033398;28;20539;-82
2022/05/11 00:10:26;;;;;;;1999.90;999.90;;;19.50;99.90;;;;;;5049970;28;20213;-81
2022/05/11 00:12:52;;;;;;;1999.90;999.90;;;19.60;99.90;;;;;;5050408;28;20739;-81
2022/05/11 00:15:21;;;;;;;1997.03;999.90;;;19.50;99.90;;;;;;5050445;28;20190;-80
2022/05/11 00:17:46;;;;;;;1998.55;999.90;;;19.50;99.90;;;;;;5035072;28;20175;-81
2022/05/11 00:20:14;;;;;;;1944.93;999.90;;;19.40;99.90;;;;;;5037458;28;20608;-81
2022/05/11 00:22:41;;;;;;;1903.50;999.90;;;19.40;99.90;;;;;;5049518;28;20699;-81
2022/05/11 00:25:08;;;;;;;1906.68;999.90;;;19.50;99.90;;;;;;5043122;28;20278;-82
2022/05/11 00:27:35;;;;;;;1818.47;999.90;;;19.40;99.90;;;;;;5071962;28;20186;-81
2022/05/11 00:30:02;;;;;;;1831.07;999.90;;;19.40;99.90;;;;;;5030852;28;21059;-81
2022/05/11 00:32:28;;;;;;;1890.03;999.90;;;19.40;99.90;;;;;;5034214;28;20191;-80
2022/05/11 00:34:54;;;;;;;1974.53;999.90;;;19.30;99.90;;;;;;5033388;28;20195;-80
2022/05/11 00:37:20;;;;;;;1970.72;999.90;;;19.30;99.90;;;;;;5082620;28;20285;-81
2022/05/11 00:39:46;;;;;;;1914.93;999.90;;;19.20;99.90;;;;;;5033251;28;20201;-82
2022/05/11 00:42:12;;;;;;;1924.53;999.90;;;19.20;99.90;;;;;;5034467;28;20190;-79
2022/05/11 00:44:38;;;;;;;1996.07;999.90;;;19.30;99.90;;;;;;5034714;28;20190;-79
2022/05/11 00:47:26;;;;;;;1983.53;999.90;;;19.30;99.90;;;;;;5032716;28;20182;-81
2022/05/11 00:49:58;;;;;;;1962.88;999.90;;;19.30;99.90;;;;;;5033792;28;21582;-79
2022/05/11 00:52:41;;;;;;;1999.90;999.90;;;19.20;99.90;;;;;;5034641;28;20562;-79
2022/05/11 00:55:30;;;;;;;1999.90;999.90;;;19.20;99.90;;;;;;5046128;28;20670;-78
2022/05/11 00:57:56;;;;;;;1999.90;999.90;;;19.20;99.90;;;;;;5034136;28;20179;-78
2022/05/11 01:00:23;;;;;;;1962.35;999.90;;;19.20;99.90;;;;;;5039433;28;20555;-78
2022/05/11 01:02:54;;;;;;;1999.15;999.90;;;19.20;99.90;;;;;;5041487;28;20186;-78
2022/05/11 01:05:19;;;;;;;1910.53;999.90;;;19.10;99.90;;;;;;5044439;28;20186;-78
2022/05/11 01:07:45;;;;;;;1880.38;999.90;;;19.00;99.90;;;;;;5032400;28;20553;-78
2022/05/11 01:10:11;;;;;;;1797.78;998.88;;;19.10;99.90;;;;;;5032655;28;20268;-78
2022/05/11 01:12:44;;;;;;;1763.88;988.20;;;19.10;99.90;;;;;;5025793;28;20191;-80
2022/05/11 01:15:12;;;;;;;1613.70;919.10;;;19.10;99.90;;;;;;5033750;28;20186;-80
2022/05/11 01:17:39;;;;;;;1455.30;821.85;;;19.30;99.90;;;;;;5032087;28;20273;-81
2022/05/11 01:20:09;;;;;;;1603.53;917.13;;;19.40;99.90;;;;;;5032520;28;20236;-81
2022/05/11 01:22:57;;;;;;;1551.40;882.22;;;19.40;99.90;;;;;;5033246;28;21616;-80
2022/05/11 01:25:24;;;;;;;1413.18;807.88;;;19.30;99.90;;;;;;5037861;28;20631;-81
2022/05/11 01:27:50;;;;;;;1630.30;926.88;;;19.40;99.90;;;;;;5050194;28;20190;-81
2022/05/11 01:30:16;;;;;;;1793.57;997.67;;;19.50;99.90;;;;;;5015868;28;20730;-80
2022/05/11 01:32:51;;;;;;;1667.22;957.03;;;19.40;99.90;;;;;;5033747;28;20205;-81
2022/05/11 01:35:20;;;;;;;1805.43;999.83;;;19.30;99.90;;;;;;5046521;28;20192;-81
2022/05/11 01:38:14;;;;;;;1642.18;943.78;;;19.40;99.90;;;;;;5036168;28;20662;-81
2022/05/11 01:40:40;;;;;;;1728.50;983.47;;;19.20;99.90;;;;;;5033138;28;20268;-81
2022/05/11 01:43:06;;;;;;;1747.15;985.80;;;19.20;99.90;;;;;;5048097;28;20187;-81
2022/05/11 01:45:32;;;;;;;1739.78;984.97;;;19.20;99.90;;;;;;5034660;28;20639;-81
2022/05/11 01:47:58;;;;;;;1934.22;999.90;;;19.20;99.90;;;;;;5030938;28;20178;-82
2022/05/11 01:50:25;;;;;;;1936.85;999.90;;;19.10;99.90;;;;;;5032117;28;20575;-81
2022/05/11 01:52:50;;;;;;;1989.53;999.90;;;18.90;99.90;;;;;;5031768;28;20321;-82
2022/05/11 01:55:16;;;;;;;1999.90;999.90;;;18.90;99.90;;;;;;5033284;28;20686;-81
2022/05/11 01:57:42;;;;;;;1999.90;999.90;;;18.90;99.90;;;;;;5031843;28;20705;-79
2022/05/11 02:00:09;;;;;;;1999.90;999.90;;;18.90;99.90;;;;;;5033309;28;20691;-81
2022/05/11 02:02:35;;;;;;;1999.90;999.90;;;18.80;99.90;;;;;;5032055;28;20202;-81
2022/05/11 02:07:51;;;;;;;1997.97;999.90;;;18.90;99.90;;;;;;5032681;28;20233;-82
2022/05/11 02:10:22;;;;;;;1999.90;999.90;;;18.90;99.90;;;;;;5036087;28;20615;-81
2022/05/11 02:12:49;;;;;;;1999.90;999.90;;;18.90;99.90;;;;;;5043956;28;20179;-79
2022/05/11 02:15:15;;;;;;;1999.90;999.90;;;18.90;99.90;;;;;;5057035;28;20221;-80
2022/05/11 02:17:45;;;;;;;1999.90;999.90;;;18.90;99.90;;;;;;5051291;28;20194;-81
2022/05/11 02:20:13;;;;;;;1999.90;999.90;;;18.80;99.90;;;;;;5047273;28;20190;-81
2022/05/11 02:22:40;;;;;;;1999.90;999.90;;;18.90;99.90;;;;;;5035678;28;20186;-83
2022/05/11 02:25:06;;;;;;;1999.90;999.90;;;19.00;99.90;;;;;;5040878;28;20213;-80
2022/05/11 02:27:33;;;;;;;1999.90;999.90;;;19.00;99.90;;;;;;5036803;28;20562;-79
2022/05/11 02:30:03;;;;;;;1999.90;999.90;;;18.90;99.90;;;;;;5035733;28;20220;-80
2022/05/11 02:32:28;;;;;;;1999.90;999.90;;;18.80;99.90;;;;;;5040744;28;20241;-80
2022/05/11 02:35:12;;;;;;;1998.65;999.90;;;18.80;99.90;;;;;;5036746;28;20198;-80
2022/05/11 02:37:40;;;;;;;1999.90;999.90;;;18.70;99.90;;;;;;5036020;28;20596;-81
2022/05/11 02:40:10;;;;;;;1999.90;999.90;;;18.60;99.90;;;;;;5036815;28;20364;-80
2022/05/11 02:42:36;;;;;;;1999.90;999.90;;;18.60;99.90;;;;;;5035404;28;20551;-80
2022/05/11 02:45:04;;;;;;;1999.10;999.90;;;18.50;99.90;;;;;;5041398;28;20305;-81
2022/05/11 02:47:30;;;;;;;1999.90;999.90;;;18.50;99.90;;;;;;5048706;28;20236;-82
2022/05/11 02:49:58;;;;;;;1952.80;999.90;;;18.50;99.90;;;;;;5035360;28;20198;-81
2022/05/11 02:52:24;;;;;;;1996.53;999.90;;;18.50;99.90;;;;;;5043943;28;20194;-81
2022/05/11 02:54:49;;;;;;;1979.85;999.90;;;18.50;99.90;;;;;;5035430;28;20198;-81
2022/05/11 02:57:19;;;;;;;1975.50;999.90;;;18.50;99.90;;;;;;5042639;28;20179;-80
2022/05/11 02:59:45;;;;;;;1950.35;999.90;;;18.50;99.90;;;;;;5049597;28;20244;-79
2022/05/11 03:02:11;;;;;;;1996.30;999.90;;;18.50;99.90;;;;;;5035360;28;20182;-81
2022/05/11 03:04:40;;;;;;;1962.55;999.90;;;18.30;99.90;;;;;;5033642;28;20193;-81
2022/05/11 03:07:05;;;;;;;1999.07;999.90;;;18.30;99.90;;;;;;5050123;28;20201;-82
2022/05/11 03:09:34;;;;;;;1953.95;999.90;;;18.20;99.90;;;;;;5033479;28;20186;-81
2022/05/11 03:12:00;;;;;;;1959.45;999.90;;;18.20;99.90;;;;;;5034636;28;20190;-80
2022/05/11 03:14:26;;;;;;;1932.88;999.90;;;18.10;99.90;;;;;;5036128;28;20178;-81
2022/05/11 03:16:51;;;;;;;1976.72;999.90;;;18.10;99.90;;;;;;5033545;28;20236;-80
2022/05/11 03:19:17;;;;;;;1935.80;999.90;;;18.20;99.90;;;;;;5032862;28;20187;-80
2022/05/11 03:21:42;;;;;;;1892.80;999.90;;;18.20;99.90;;;;;;5035041;28;20277;-81
2022/05/11 03:24:08;;;;;;;1827.78;999.90;;;18.20;99.90;;;;;;5066868;28;20182;-80
2022/05/11 03:26:35;;;;;;;1819.13;999.90;;;18.10;99.90;;;;;;5034548;28;20645;-81
2022/05/11 03:29:05;;;;;;;1763.90;999.90;;;18.00;99.90;;;;;;5033428;28;20186;-81
2022/05/11 03:31:35;;;;;;;1718.97;999.90;;;18.10;99.90;;;;;;5033140;28;20214;-81
2022/05/11 03:36:47;;;;;;;1715.10;999.90;;;18.10;99.90;;;;;;5033473;28;20198;-82
2022/05/11 03:39:15;;;;;;;1661.78;999.90;;;18.10;99.90;;;;;;5049908;28;20654;-81
2022/05/11 03:41:41;;;;;;;1651.95;999.90;;;17.90;99.90;;;;;;5032989;28;20257;-81
2022/05/11 03:44:07;;;;;;;1659.25;999.90;;;17.90;99.90;;;;;;5065919;28;20193;-80
2022/05/11 03:46:32;;;;;;;1708.00;999.90;;;17.80;99.90;;;;;;5053731;28;20178;-81
2022/05/11 03:48:58;;;;;;;1743.10;999.90;;;17.80;99.90;;;;;;5035236;28;20191;-80
2022/05/11 03:51:24;;;;;;;1739.30;999.90;;;17.80;99.90;;;;;;5019465;28;20228;-81
2022/05/11 03:53:50;;;;;;;1764.68;999.90;;;17.70;99.90;;;;;;5053405;28;20576;-79
2022/05/11 03:56:18;;;;;;;1733.90;999.90;;;17.60;99.90;;;;;;5049642;28;20655;-81
2022/05/11 03:58:45;;;;;;;1683.57;999.90;;;17.70;99.90;;;;;;5033304;28;20277;-80
2022/05/11 04:01:11;;;;;;;1639.00;999.90;;;17.50;99.90;;;;;;4983347;28;1102674;-79
2022/05/11 04:03:37;;;;;;;1537.93;999.90;;;17.60;99.90;;;;;;5034243;28;20194;-79
2022/05/11 04:06:05;;;;;;;1437.78;999.90;;;17.40;99.90;;;;;;5033748;28;20536;-79
2022/05/11 04:08:31;;;;;;;1375.30;999.90;;;17.40;99.90;;;;;;5035549;28;20274;-79
2022/05/11 04:10:57;;;;;;;1311.15;999.90;;;17.40;99.90;;;;;;5034588;28;20304;-78
2022/05/11 04:13:23;;;;;;;1229.25;999.90;;;17.30;99.90;;;;;;5044849;28;20647;-80
2022/05/11 04:15:50;;;;;;;1014.55;929.83;;;17.30;99.90;;;;;;5042039;28;20651;-79
2022/05/11 04:18:17;;;;;;;827.22;760.95;;;17.10;99.90;;;;;;5066439;28;20183;-78
2022/05/11 04:20:44;;;;;;;757.83;692.03;;;17.00;99.90;;;;;;5035289;28;20186;-81
2022/05/11 04:23:09;;;;;;;571.72;525.50;;;17.00;99.90;;;;;;5048481;28;20194;-79
2022/05/11 04:25:38;;;;;;;543.33;504.48;;;17.10;99.90;;;;;;5032804;28;20558;-79
2022/05/11 04:28:09;;;;;;;753.83;700.80;;;17.20;99.90;;;;;;5033248;28;20201;-79
2022/05/11 04:30:35;;;;;;;862.80;800.05;;;17.20;99.90;;;;;;5044632;28;20224;-79
2022/05/11 04:33:00;;;;;;;944.72;876.42;;;17.00;99.90;;;;;;5038296;28;20179;-79
2022/05/11 04:35:30;;;;;;;972.70;903.92;;;17.10;99.90;;;;;;5033737;28;20210;-79
2022/05/11 04:38:03;;;;;;;983.33;912.58;;;17.00;99.90;;;;;;5036086;28;20259;-78
2022/05/11 04:40:29;;;;;;;924.85;858.30;;;16.90;99.90;;;;;;5033004;28;20198;-79
2022/05/11 04:42:55;;;;;;;996.15;923.33;;;17.00;99.90;;;;;;5066148;28;20593;-79
2022/05/11 04:45:21;;;;;;;1040.32;963.35;;;17.10;99.90;;;;;;5034206;28;20189;-79
2022/05/11 04:47:47;;;;;;;1031.13;952.08;;;17.10;99.90;;;;;;5026454;28;20192;-79
2022/05/11 04:50:15;;;;;;;1178.07;999.90;;;17.10;99.90;;;;;;5034380;28;20679;-80
2022/05/11 04:52:41;;;;;;;1200.90;999.90;;;17.10;99.90;;;;;;5034102;28;20190;-80
2022/05/11 04:55:09;;;;;;;1199.82;999.90;;;17.00;99.90;;;;;;5035139;28;20175;-80
2022/05/11 04:57:36;;;;;;;1200.00;999.90;;;16.90;99.90;;;;;;5041322;28;20644;-80
2022/05/11 05:00:06;;;;;;;1205.53;999.90;;;16.90;99.90;;;;;;5041657;28;20617;-80
2022/05/11 05:02:32;;;;;;;1168.75;999.90;;;16.80;99.90;;;;;;5032956;28;20174;-80
2022/05/11 05:04:59;;;;;;;1185.28;999.90;;;16.90;99.90;;;;;;5017547;28;20256;-79
2022/05/11 05:07:25;;;;;;;1160.85;999.90;;;17.10;99.90;;;;;;5051791;28;20190;-80
2022/05/11 05:09:54;;;;;;;1159.20;999.90;;;17.00;99.90;;;;;;5036165;28;20198;-79
2022/05/11 05:12:20;;;;;;;1153.38;999.90;;;17.10;99.90;;;;;;5049975;28;20187;-80
2022/05/11 05:14:45;;;;;;;1147.18;999.90;;;17.10;99.90;;;;;;5032805;28;20236;-78
2022/05/11 05:17:13;;;;;;;1149.63;999.90;;;17.10;99.90;;;;;;5033284;28;20582;-78
2022/05/11 05:19:45;;;;;;;1130.65;999.90;;;17.10;99.90;;;;;;5033502;28;20187;-78
2022/05/11 05:22:11;;;;;;;1109.88;999.90;;;17.20;99.90;;;;;;5065803;28;20189;-79
2022/05/11 05:24:37;;;;;;;1061.97;985.05;;;17.30;99.90;;;;;;5033756;28;20190;-79
2022/05/11 05:27:03;;;;;;;1009.53;939.70;;;17.40;99.90;;;;;;5042523;28;20201;-79
2022/05/11 05:32:14;;;;;;;881.22;825.38;;;17.60;99.90;;;;;;5033233;28;20225;-78
2022/05/11 05:34:43;;;;;;;803.25;754.35;;;17.60;99.90;;;;;;5033620;28;20636;-79
2022/05/11 05:37:16;;;;;;;681.60;642.50;;;17.60;99.90;;;;;;5032488;28;20191;-78
2022/05/11 05:39:48;;;;;;;522.45;493.70;;;17.70;99.90;;;;;;5017290;28;20187;-79
2022/05/11 05:42:23;;;;;;;463.65;438.00;;;17.50;99.90;;;;;;5016247;28;20186;-79
2022/05/11 05:44:49;;;;;;;394.23;372.50;;;17.60;99.90;;;;;;5033542;28;20230;-78
2022/05/11 05:47:16;;;;;;;394.33;371.70;;;17.50;99.90;;;;;;5048754;28;20631;-80
2022/05/11 05:49:44;;;;;;;387.38;365.55;;;17.40;99.90;;;;;;5033437;28;20218;-80
2022/05/11 05:52:19;;;;;;;362.52;342.35;;;17.40;99.90;;;;;;5033029;28;20194;-79
2022/05/11 05:54:45;;;;;;;355.48;336.42;;;17.50;99.90;;;;;;5044416;28;20194;-80
2022/05/11 05:57:13;;;;;;;409.60;387.90;;;17.50;99.90;;;;;;5040915;28;20191;-79
2022/05/11 05:59:38;;;;;;;416.02;394.38;;;17.40;99.90;;;;;;5061052;28;20954;-78
2022/05/11 06:02:08;;;;;;;378.73;359.50;;;17.60;99.90;;;;;;5034614;28;20190;-78
2022/05/11 06:04:34;;;;;;;439.17;416.15;;;17.70;99.90;;;;;;5051417;28;20178;-79
2022/05/11 06:06:59;;;;;;;414.10;393.08;;;17.70;99.90;;;;;;5038226;28;20189;-79
2022/05/11 06:09:25;;;;;;;463.48;439.90;;;17.70;99.90;;;;;;5065324;28;20225;-79
2022/05/11 06:11:51;;;;;;;455.58;432.60;;;17.70;99.90;;;;;;5033074;28;20703;-79
2022/05/11 06:14:16;;;;;;;511.50;484.85;;;17.70;99.90;;;;;;5015883;28;20194;-80
2022/05/11 06:16:42;;;;;;;508.77;483.33;;;17.60;99.90;;;;;;5032176;28;20187;-79
2022/05/11 06:19:08;;;;;;;409.50;389.35;;;17.70;99.90;;;;;;5039527;28;20187;-80
2022/05/11 06:21:34;;;;;;;355.52;337.95;;;17.70;99.90;;;;;;5031841;28;20713;-80
2022/05/11 06:24:00;;;;;;;331.85;315.10;;;17.70;99.90;;;;;;5032163;28;20183;-80
2022/05/11 06:26:25;;;;;;;275.83;261.50;;;17.60;99.90;;;;;;5050312;28;20190;-80
2022/05/11 06:28:51;;;;;;;241.57;228.13;;;17.80;99.90;;;;;;5031654;28;20179;-80
2022/05/11 06:31:18;;;;;;;233.70;220.13;;;17.60;99.90;;;;;;5037073;28;20572;-80
2022/05/11 06:33:49;;;;;;;222.63;209.80;;;17.60;99.90;;;;;;5041298;28;20182;-80
2022/05/11 06:36:15;;;;;;;184.35;172.65;;;17.70;99.90;;;;;;5016391;28;20574;-79
2022/05/11 06:38:41;;;;;;;252.45;237.77;;;17.70;99.90;;;;;;5031994;28;20249;-80
2022/05/11 06:41:23;;;;;;;187.88;175.52;;;17.80;99.90;;;;;;5031667;28;20282;-79
2022/05/11 06:43:51;;;;;;;203.45;191.50;;;17.90;99.90;;;;;;5065007;28;20222;-80
2022/05/11 06:46:17;;;;;;;222.25;208.95;;;18.10;99.90;;;;;;5031628;28;20655;-78
2022/05/11 06:48:45;;;;;;;222.90;210.10;;;18.20;99.90;;;;;;5064828;28;20255;-80
2022/05/11 06:51:12;;;;;;;220.68;207.95;;;18.20;99.90;;;;;;5031336;28;20215;-79
2022/05/11 06:59:20;;;;;;;388.08;367.00;;;18.30;99.90;;;;;;5047140;28;20251;-80
2022/05/11 07:01:49;;;;;;;450.77;425.50;;;18.40;99.90;;;;;;5050356;28;20217;-80
2022/05/11 07:04:15;;;;;;;478.17;451.33;;;18.30;99.90;;;;;;5064205;28;20725;-80
2022/05/11 07:06:41;;;;;;;473.50;447.52;;;18.40;99.90;;;;;;5045541;28;20183;-80
2022/05/11 07:09:06;;;;;;;584.92;552.55;;;18.40;99.90;;;;;;5030278;28;20662;-79
2022/05/11 07:14:16;;;;;;;773.70;727.90;;;18.60;99.90;;;;;;5034939;28;20253;-81
2022/05/11 07:16:43;;;;;;;812.10;762.58;;;18.90;99.90;;;;;;5035758;28;20182;-82
2022/05/11 07:19:09;;;;;;;863.35;808.53;;;19.00;99.90;;;;;;5051930;28;20182;-82
2022/05/11 07:21:34;;;;;;;886.65;829.78;;;19.20;99.90;;;;;;5034935;28;20183;-82
2022/05/11 07:24:00;;;;;;;912.17;852.38;;;19.30;99.90;;;;;;5043603;28;20195;-79
2022/05/11 07:26:26;;;;;;;962.42;896.63;;;19.50;99.90;;;;;;5067639;28;20187;-80
2022/05/11 07:28:52;;;;;;;1009.63;938.95;;;19.90;99.90;;;;;;5035782;28;20216;-80
2022/05/11 07:31:17;;;;;;;1162.47;999.90;;;21.60;99.90;;;;;;5053323;28;20222;-80
2022/05/11 07:33:44;;;;;;;1272.95;999.90;;;23.30;99.90;;;;;;5045761;28;20186;-81
2022/05/11 07:36:10;;;;;;;1327.05;999.90;;;24.40;99.90;;;;;;5045281;28;20179;-81
2022/05/11 07:38:39;;;;;;;1362.45;999.90;;;25.60;99.90;;;;;;5040640;28;20554;-82
2022/05/11 07:41:05;;;;;;;1457.00;999.90;;;26.50;99.90;;;;;;5021612;28;20197;-81
2022/05/11 07:43:31;;;;;;;1580.43;999.90;;;27.60;99.90;;;;;;5033859;28;20182;-81
2022/05/11 07:45:57;;;;;;;1645.38;999.90;;;28.00;99.90;;;;;;5042248;28;20221;-81
2022/05/11 07:48:23;;;;;;;1695.32;999.90;;;28.00;99.90;;;;;;5033950;28;20221;-81
2022/05/11 07:50:49;;;;;;;1756.38;999.90;;;29.20;99.90;;;;;;5034123;28;20217;-81
2022/05/11 07:53:16;;;;;;;1809.18;999.90;;;29.40;99.90;;;;;;5072832;28;20983;-81
2022/05/11 07:55:42;;;;;;;1838.03;999.90;;;30.00;99.90;;;;;;5041603;28;20182;-82
2022/05/11 08:01:09;;;;;;;1876.43;999.90;;;30.60;99.90;;;;;;5039461;28;20217;-82
2022/05/11 08:03:34;;;;;;;1889.88;999.90;;;30.80;99.90;;;;;;5035865;28;20209;-82
2022/05/11 08:06:00;;;;;;;1900.38;999.90;;;31.20;99.90;;;;;;5046783;28;20754;-81
2022/05/11 08:08:29;;;;;;;1912.00;999.90;;;31.20;99.90;;;;;;5035119;28;20216;-83
2022/05/11 08:10:55;;;;;;;1909.43;999.90;;;31.50;99.90;;;;;;5039738;28;20209;-80
2022/05/11 08:13:20;;;;;;;1931.63;999.90;;;31.90;99.90;;;;;;5045783;28;20277;-82
2022/05/11 08:15:50;;;;;;;1933.05;999.90;;;31.90;99.90;;;;;;5045808;28;20247;-80
2022/05/11 08:18:18;;;;;;;1935.85;999.90;;;32.30;99.90;;;;;;5054833;28;20202;-80
2022/05/11 08:20:46;;;;;;;1945.28;999.90;;;31.70;99.90;;;;;;5034043;28;20182;-80
2022/05/11 08:23:13;;;;;;;1948.75;999.90;;;32.10;99.90;;;;;;5066270;28;20171;-81
2022/05/11 08:25:40;;;;;;;1942.32;999.90;;;32.10;99.90;;;;;;5039367;28;20193;-82
2022/05/11 08:28:15;;;;;;;1940.07;999.90;;;32.00;99.90;;;;;;5034790;28;20185;-82
2022/05/11 08:33:27;;;;;;;1932.63;999.90;;;31.80;99.90;;;;;;5033681;28;20205;-80
2022/05/11 08:35:55;;;;;;;1933.95;999.90;;;31.80;99.90;;;;;;5043186;28;20185;-81
2022/05/11 08:38:23;;;;;;;1934.40;999.90;;;32.20;99.90;;;;;;5039787;28;20177;-80
2022/05/11 08:40:57;;;;;;;1937.22;999.90;;;31.80;99.90;;;;;;5066069;28;20589;-84
2022/05/11 08:43:27;;;;;;;1934.80;999.90;;;31.40;99.90;;;;;;5068900;28;20177;-81
2022/05/11 08:46:23;;;;;;;1942.30;999.90;;;31.20;99.90;;;;;;5033011;28;20244;-81
2022/05/11 08:49:00;;;;;;;1917.90;999.90;;;31.30;99.90;;;;;;5033603;28;20682;-81
2022/05/11 08:51:31;;;;;;;1919.90;999.90;;;30.60;99.90;;;;;;5033331;28;20217;-82
2022/05/11 08:54:14;;;;;;;1921.88;999.90;;;30.30;99.90;;;;;;5034103;28;20185;-79
2022/05/11 08:56:41;;;;;;;1906.88;999.90;;;29.90;99.90;;;;;;5032463;28;20623;-81
2022/05/11 08:59:11;;;;;;;1921.55;999.90;;;30.60;99.90;;;;;;5032262;28;20570;-82
2022/05/11 09:01:49;;;;;;;1916.63;999.90;;;30.40;99.90;;;;;;5034102;28;20296;-78
2022/05/11 09:04:19;;;;;;;1920.90;999.90;;;31.00;99.90;;;;;;5033989;28;20185;-78
2022/05/11 09:06:45;;;;;;;1912.43;999.90;;;31.40;99.90;;;;;;5047111;28;20189;-79
2022/05/11 09:09:14;;;;;;;1913.82;999.90;;;31.10;99.90;;;;;;5032942;28;20194;-75
2022/05/11 09:11:52;;;;;;;1915.22;999.90;;;31.10;99.90;;;;;;5034087;28;20209;-78
2022/05/11 09:14:25;;;;;;;1921.45;999.90;;;31.40;99.90;;;;;;5046061;28;20271;-81
2022/05/11 09:16:52;;;;;;;1923.88;999.90;;;31.40;99.90;;;;;;5042903;28;20695;-79
2022/05/11 09:19:28;;;;;;;1913.97;999.90;;;30.60;99.90;;;;;;5043653;28;20185;-80
2022/05/11 09:22:10;;;;;;;1899.10;999.90;;;29.20;99.90;;;;;;5040410;28;20198;-79
2022/05/11 09:24:48;;;;;;;1836.68;999.90;;;28.50;99.90;;;;;;5041153;28;20182;-81
2022/05/11 09:27:37;;;;;;;1791.10;999.90;;;27.20;99.90;;;;;;5065546;28;20182;-82
2022/05/11 09:30:14;;;;;;;1769.53;999.90;;;26.00;99.90;;;;;;5050860;28;20221;-79
2022/05/11 09:32:45;;;;;;;1712.30;999.90;;;25.50;99.90;;;;;;5073764;28;20191;-82
2022/05/11 09:35:21;;;;;;;1668.25;999.90;;;24.90;99.90;;;;;;5033632;28;20179;-80
2022/05/11 09:38:15;;;;;;;1616.80;999.90;;;24.90;99.90;;;;;;5037823;28;20234;-83
2022/05/11 09:40:55;;;;;;;1552.57;999.90;;;24.70;99.90;;;;;;5037807;28;20285;-78
2022/05/11 09:43:35;;;;;;;1482.53;999.90;;;24.50;99.90;;;;;;5041703;28;20665;-77
2022/05/11 09:46:14;;;;;;;1436.22;999.90;;;24.40;99.90;;;;;;5051998;28;20261;-75
2022/05/11 09:48:40;;;;;;;1403.78;999.90;;;24.40;99.90;;;;;;5049865;28;20186;-77
2022/05/11 09:51:21;;;;;;;1384.90;999.90;;;24.30;99.90;;;;;;5049077;28;20209;-78
2022/05/11 09:53:53;;;;;;;1389.57;999.90;;;24.30;99.90;;;;;;5038061;28;20210;-77
2022/05/11 09:56:34;;;;;;;1385.93;999.90;;;24.10;99.90;;;;;;5048096;28;20174;-77
2022/05/11 09:59:18;;;;;;;1381.30;999.90;;;24.00;99.90;;;;;;5050015;28;20231;-77
2022/05/11 10:01:44;;;;;;;1367.65;999.90;;;24.00;99.90;;;;;;5045263;28;20232;-78
2022/05/11 10:04:11;;;;;;;1362.05;999.90;;;23.90;99.90;;;;;;5046179;28;20193;-76
2022/05/11 10:06:50;;;;;;;1363.10;999.90;;;24.00;99.90;;;;;;5049282;28;20609;-75
2022/05/11 10:09:25;;;;;;;1363.25;999.90;;;23.80;99.90;;;;;;5035654;28;20268;-77
2022/05/11 10:11:51;;;;;;;1352.22;999.90;;;23.90;99.90;;;;;;5035814;28;20244;-76
2022/05/11 10:23:16;;;;;;;1381.28;999.90;;;23.90;99.90;;;;;;5042242;28;20255;-76
2022/05/11 10:25:53;;;;;;;1384.97;999.90;;;23.90;99.90;;;;;;5071987;28;20269;-76
2022/05/11 10:28:44;;;;;;;1386.05;999.90;;;23.80;99.90;;;;;;5038626;28;20598;-76
2022/05/11 10:31:21;;;;;;;1392.57;999.90;;;23.80;99.90;;;;;;5045570;28;20302;-76
2022/05/11 10:34:05;;;;;;;1394.95;999.90;;;23.80;99.90;;;;;;5069215;28;20279;-76
2022/05/11 10:36:37;;;;;;;1405.57;999.90;;;24.10;99.90;;;;;;5036899;28;20268;-80
2022/05/11 10:39:03;;;;;;;1409.18;999.90;;;24.00;99.90;;;;;;5036410;28;20187;-78
2022/05/11 10:41:32;;;;;;;1404.03;999.90;;;24.10;99.90;;;;;;5037035;28;20278;-78
2022/05/11 10:44:26;;;;;;;1407.80;999.90;;;24.00;99.90;;;;;;5043354;28;20545;-81
2022/05/11 10:47:11;;;;;;;1439.95;999.90;;;23.90;99.90;;;;;;5035054;28;20225;-80
2022/05/11 10:49:50;;;;;;;1451.40;999.90;;;24.00;99.90;;;;;;5039589;28;20227;-73
2022/05/11 10:52:44;;;;;;;1460.50;999.90;;;23.90;99.90;;;;;;5050155;28;20196;-74
2022/05/11 10:55:30;;;;;;;1488.20;999.90;;;24.00;99.90;;;;;;5046052;28;20174;-76
2022/05/11 10:58:13;;;;;;;1491.78;999.90;;;23.80;99.90;;;;;;5042825;28;20257;-73
2022/05/11 11:01:05;;;;;;;1498.25;999.90;;;24.00;99.90;;;;;;5049135;28;20206;-72
2022/05/11 11:03:34;;;;;;;1643.20;999.90;;;24.10;99.90;;;;;;5048989;28;20178;-74
2022/05/11 11:09:14;;;;;;;1520.57;999.90;;;24.10;99.90;;;;;;5036216;28;20236;-77
2022/05/11 11:12:04;;;;;;;1574.35;999.90;;;24.00;99.90;;;;;;5051453;28;20544;-77
2022/05/11 11:14:34;;;;;;;1572.95;999.90;;;23.90;99.90;;;;;;5043404;28;20324;-76
2022/05/11 11:17:06;;;;;;;1542.72;999.90;;;23.80;99.90;;;;;;5047852;28;20175;-69
2022/05/11 11:19:34;;;;;;;1540.93;999.90;;;23.80;99.90;;;;;;5043898;28;20276;-72
2022/05/11 11:22:01;;;;;;;1558.43;999.90;;;23.70;99.90;;;;;;5045286;28;20193;-71
2022/05/11 11:24:28;;;;;;;1578.03;999.90;;;23.80;99.90;;;;;;5052266;28;20273;-73
2022/05/11 11:27:00;;;;;;;1579.05;999.90;;;23.90;99.90;;;;;;5034599;28;20266;-72
2022/05/11 11:29:59;;;;;;;1593.43;999.90;;;23.90;99.90;;;;;;5035754;28;20191;-73
2022/05/11 11:32:25;;;;;;;1628.45;999.90;;;23.80;99.90;;;;;;5045627;28;20187;-72
2022/05/11 11:35:39;;;;;;;1643.93;999.90;;;23.70;99.90;;;;;;5036071;28;20197;-72
2022/05/11 11:38:06;;;;;;;1722.85;999.90;;;23.80;99.90;;;;;;5032436;28;20587;-72
2022/05/11 11:40:34;;;;;;;1713.20;999.90;;;24.00;99.90;;;;;;5032621;28;20700;-72
2022/05/11 11:43:38;;;;;;;1751.72;999.90;;;24.10;99.90;;;;;;5034549;28;20206;-72
2022/05/11 11:45:50;;;;;;;1766.43;999.90;;;24.10;99.90;;;;;;5044945;28;20588;-74
2022/05/11 11:48:24;;;;;;;1804.55;999.90;;;24.30;99.90;;;;;;5041522;28;20276;-72
2022/05/11 11:50:53;;;;;;;1826.55;999.90;;;24.30;99.90;;;;;;5046674;28;20674;-74
2022/05/11 11:53:34;;;;;;;1834.68;999.90;;;24.10;99.90;;;;;;5042199;28;20228;-73
2022/05/11 11:56:25;;;;;;;1822.88;999.90;;;24.10;99.90;;;;;;5059118;28;20193;-75
2022/05/11 11:59:30;;;;;;;1860.88;999.90;;;24.20;99.90;;;;;;5037861;28;20186;-74
2022/05/11 12:02:04;;;;;;;1795.60;999.90;;;24.50;99.90;;;;;;5042896;28;20301;-74
2022/05/11 12:04:38;;;;;;;1812.93;999.90;;;24.40;99.90;;;;;;5035980;28;20214;-74
2022/05/11 12:15:37;;;;;;;1871.85;999.90;;;24.70;99.90;;;;;;5035238;28;20675;-76
2022/05/11 12:18:28;;;;;;;1903.53;999.90;;;24.60;99.90;;;;;;5036357;28;20186;-74
2022/05/11 12:20:55;;;;;;;1886.38;999.90;;;24.30;99.90;;;;;;5049835;28;20218;-74
2022/05/11 12:23:24;;;;;;;1906.95;999.90;;;24.20;99.90;;;;;;5034327;28;20558;-74
2022/05/11 12:25:57;;;;;;;1892.13;999.90;;;24.20;99.90;;;;;;5050429;28;20644;-74
2022/05/11 12:28:33;;;;;;;1920.43;999.90;;;24.30;99.90;;;;;;5047791;28;20270;-74
2022/05/11 12:31:01;;;;;;;1930.70;999.90;;;24.40;99.90;;;;;;5034651;28;20217;-74
2022/05/11 12:33:32;;;;;;;1936.32;999.90;;;24.40;99.90;;;;;;5033705;28;20190;-74
2022/05/11 12:35:58;;;;;;;1947.07;999.90;;;24.30;99.90;;;;;;5033462;28;20206;-74
2022/05/11 12:38:32;;;;;;;1951.50;999.90;;;24.50;99.90;;;;;;5033374;28;20650;-74
2022/05/11 12:41:00;;;;;;;1959.82;999.90;;;24.30;99.90;;;;;;5038387;28;20188;-74
2022/05/11 12:43:26;;;;;;;1957.85;999.90;;;24.20;99.90;;;;;;5051731;28;20605;-74
2022/05/11 12:45:55;;;;;;;1981.00;999.90;;;24.30;99.90;;;;;;5045019;28;20313;-74
2022/05/11 12:48:35;;;;;;;1970.10;999.90;;;24.50;99.90;;;;;;5047117;28;20209;-74
2022/05/11 12:51:23;;;;;;;1984.03;999.90;;;24.50;99.90;;;;;;5041607;28;20214;-74
2022/05/11 12:53:54;;;;;;;1989.45;999.90;;;24.40;99.90;;;;;;5044748;28;20597;-74
2022/05/11 12:56:24;;;;;;;1997.15;999.90;;;24.40;99.90;;;;;;5032662;28;20185;-74
2022/05/11 12:58:52;;;;;;;1995.22;999.90;;;24.50;99.90;;;;;;5033933;28;20258;-75